Mc Adams, Mississippi
Current Conditions -  °F | °C
As of 3:53 PM on Tuesday 25 Nov 2014 (Local Time) from KGWO Reporting Station
Clear Clear  
Wind Chill: 45°   Ceiling: Unl
Heat Index: 48°   Visibility: 10mi
Dew Point: 25°   Wind: 6mph
Humidity: 41%   Direction: 330°NNW
Pressure: 30.17"   Gusts: NA
Location:  33.0236°N, 89.6887°W
Report Text: KGWO 252153Z AUTO 33005KT 10SM CLR 09/M04 A3017 RMK AO2 SLP216 T00891039 TSNO
Loading
Personal Weather Stations






























Interactive Weather Map New forecast layout! Learn more

10-Day Weather Forecast

Advertisements
Track Severe Weather on mobile